createdAt,value
2022-08-26T00:01:46.666Z,24.50
2022-08-26T00:04:13.689Z,24.49
2022-08-26T00:06:42.559Z,24.48
2022-08-26T00:09:16.136Z,24.45
2022-08-26T00:11:44.716Z,24.46
2022-08-26T00:14:13.834Z,24.44
2022-08-26T00:16:47.826Z,24.44
2022-08-26T00:19:16.386Z,24.42
2022-08-26T00:21:43.438Z,24.38
2022-08-26T00:24:10.324Z,24.39
2022-08-26T00:26:37.150Z,24.38
2022-08-26T00:29:03.643Z,24.38
2022-08-26T00:31:32.683Z,24.37
2022-08-26T00:33:59.396Z,24.36
2022-08-26T00:36:29.565Z,24.35
2022-08-26T00:38:57.204Z,24.34
2022-08-26T00:41:24.021Z,24.33
2022-08-26T00:43:50.928Z,24.29
2022-08-26T00:46:22.032Z,24.29
2022-08-26T00:48:53.839Z,24.29
2022-08-26T00:51:29.783Z,24.27
2022-08-26T00:54:05.457Z,24.24
2022-08-26T00:56:40.425Z,24.24
2022-08-26T00:59:12.018Z,24.23
2022-08-26T01:01:41.164Z,24.21
2022-08-26T01:04:09.553Z,24.20
2022-08-26T01:06:36.508Z,24.15
2022-08-26T01:09:03.549Z,24.16
2022-08-26T01:11:31.150Z,24.13
2022-08-26T01:14:02.733Z,24.14
2022-08-26T01:16:30.218Z,24.13
2022-08-26T01:19:03.508Z,24.12
2022-08-26T01:21:40.552Z,24.10
2022-08-26T01:24:10.309Z,24.08
2022-08-26T01:26:42.755Z,24.08
2022-08-26T01:29:14.877Z,24.06
2022-08-26T01:31:46.289Z,24.05
2022-08-26T01:34:20.426Z,24.02
2022-08-26T01:36:51.379Z,23.93
2022-08-26T01:39:19.209Z,23.96
2022-08-26T01:41:47.181Z,23.93
2022-08-26T01:44:23.724Z,23.95
2022-08-26T01:46:52.804Z,23.94
2022-08-26T01:49:22.110Z,23.92
2022-08-26T01:51:53.636Z,23.91
2022-08-26T01:54:20.951Z,23.91
2022-08-26T01:56:51.022Z,23.89
2022-08-26T01:59:20.237Z,23.87
2022-08-26T02:01:48.059Z,23.85
2022-08-26T02:04:35.070Z,23.82
2022-08-26T02:07:09.618Z,23.82
2022-08-26T02:09:41.310Z,23.81
2022-08-26T02:12:10.488Z,23.80
2022-08-26T02:14:43.854Z,23.79
2022-08-26T02:17:11.278Z,23.77
2022-08-26T02:19:41.678Z,23.75
2022-08-26T02:22:13.948Z,23.73
2022-08-26T02:24:54.337Z,23.72
2022-08-26T02:27:33.577Z,23.72
2022-08-26T02:30:08.294Z,23.68
2022-08-26T02:32:34.933Z,23.66
2022-08-26T02:35:01.784Z,23.67
2022-08-26T02:37:31.354Z,23.65
2022-08-26T02:39:58.223Z,23.64
2022-08-26T02:42:24.847Z,23.61
2022-08-26T02:44:51.728Z,23.62
2022-08-26T02:47:18.234Z,23.58
2022-08-26T02:49:47.279Z,23.58
2022-08-26T02:52:14.649Z,23.56
2022-08-26T02:54:41.115Z,23.56
2022-08-26T02:57:08.140Z,23.53
2022-08-26T02:59:35.974Z,23.53
2022-08-26T03:02:03.211Z,23.51
2022-08-26T03:04:30.380Z,23.50
2022-08-26T03:06:59.900Z,23.45
2022-08-26T03:09:27.876Z,23.47
2022-08-26T03:11:55.410Z,23.46
2022-08-26T03:14:23.882Z,23.44
2022-08-26T03:16:52.282Z,23.43
2022-08-26T03:19:18.742Z,23.42
2022-08-26T03:21:47.334Z,23.40
2022-08-26T03:24:14.668Z,23.39
2022-08-26T03:26:41.178Z,23.38
2022-08-26T03:29:38.847Z,23.36
2022-08-26T03:32:06.091Z,23.33
2022-08-26T03:34:32.559Z,23.34
2022-08-26T03:36:59.074Z,23.32
2022-08-26T03:39:25.591Z,23.30
2022-08-26T03:41:52.390Z,23.27
2022-08-26T03:44:19.901Z,23.27
2022-08-26T03:46:46.564Z,23.23
2022-08-26T03:49:13.217Z,23.22
2022-08-26T03:51:41.652Z,23.23
2022-08-26T03:54:08.821Z,23.22
2022-08-26T03:56:36.510Z,23.20
2022-08-26T03:59:03.357Z,23.18
2022-08-26T04:01:30.719Z,23.14
2022-08-26T04:03:58.205Z,23.14
2022-08-26T04:06:39.379Z,23.13
2022-08-26T04:09:10.096Z,23.13
2022-08-26T04:11:39.442Z,23.10
2022-08-26T04:14:10.189Z,23.08
2022-08-26T04:16:37.127Z,23.09
2022-08-26T04:19:04.085Z,23.07
2022-08-26T04:21:31.016Z,23.06
2022-08-26T04:23:58.336Z,23.03
2022-08-26T04:26:26.006Z,23.04
2022-08-26T04:28:54.584Z,23.01
2022-08-26T04:31:22.649Z,23.00
2022-08-26T04:33:50.737Z,22.99
2022-08-26T04:36:17.709Z,22.98
2022-08-26T04:38:47.210Z,22.95
2022-08-26T04:41:15.437Z,22.94
2022-08-26T04:43:44.653Z,22.93
2022-08-26T04:46:13.731Z,22.93
2022-08-26T04:48:41.247Z,22.92
2022-08-26T04:51:09.113Z,22.91
2022-08-26T04:53:37.281Z,22.90
2022-08-26T04:56:04.699Z,22.90
2022-08-26T04:58:31.893Z,22.89
2022-08-26T05:00:58.459Z,22.88
2022-08-26T05:03:27.355Z,22.85
2022-08-26T05:05:58.218Z,22.89
2022-08-26T05:08:24.906Z,22.87
2022-08-26T05:10:56.039Z,22.87
2022-08-26T05:13:27.415Z,22.86
2022-08-26T05:15:54.633Z,22.86
2022-08-26T05:18:27.393Z,22.85
2022-08-26T05:20:54.898Z,22.89
2022-08-26T05:23:24.243Z,22.91
2022-08-26T05:25:58.408Z,22.92
2022-08-26T05:28:27.061Z,22.90
2022-08-26T05:30:54.358Z,22.94
2022-08-26T05:33:21.921Z,22.95
2022-08-26T05:35:49.002Z,22.97
2022-08-26T05:38:18.342Z,22.97
2022-08-26T05:40:49.076Z,22.99
2022-08-26T05:43:21.061Z,23.00
2022-08-26T05:45:49.886Z,22.99
2022-08-26T05:48:18.890Z,23.02
2022-08-26T05:50:53.951Z,23.02
2022-08-26T05:53:23.930Z,23.03
2022-08-26T05:55:54.404Z,23.03
2022-08-26T05:58:23.328Z,23.05
2022-08-26T06:01:20.315Z,23.03
2022-08-26T06:03:51.598Z,23.06
2022-08-26T06:06:27.812Z,23.09
2022-08-26T06:08:57.834Z,23.10
2022-08-26T06:11:26.050Z,23.11
2022-08-26T06:13:54.441Z,23.11
2022-08-26T06:16:24.074Z,23.13
2022-08-26T06:18:52.592Z,23.14
2022-08-26T06:21:26.524Z,23.16
2022-08-26T06:24:15.149Z,23.14
2022-08-26T06:26:46.825Z,23.17
2022-08-26T06:29:24.717Z,23.18
2022-08-26T06:31:56.271Z,23.21
2022-08-26T06:34:29.656Z,23.22
2022-08-26T06:36:58.493Z,23.23
2022-08-26T06:39:25.111Z,23.26
2022-08-26T06:41:51.998Z,23.29
2022-08-26T06:44:19.382Z,23.31
2022-08-26T06:46:46.330Z,23.34
2022-08-26T06:49:17.662Z,23.34
2022-08-26T06:51:44.560Z,23.35
2022-08-26T06:54:11.391Z,23.39
2022-08-26T06:56:42.980Z,23.42
2022-08-26T06:59:11.653Z,23.44
2022-08-26T07:01:44.525Z,23.48
2022-08-26T07:04:15.551Z,23.48
2022-08-26T07:06:48.704Z,23.51
2022-08-26T07:09:16.827Z,23.51
2022-08-26T07:11:44.477Z,23.55
2022-08-26T07:14:12.083Z,23.59
2022-08-26T07:16:39.936Z,23.61
2022-08-26T07:19:10.654Z,23.60
2022-08-26T07:21:40.202Z,23.65
2022-08-26T07:24:07.198Z,23.67
2022-08-26T07:26:33.672Z,23.70
2022-08-26T07:29:01.701Z,23.72
2022-08-26T07:31:36.009Z,23.74
2022-08-26T07:34:09.277Z,23.77
2022-08-26T07:36:36.437Z,23.79
2022-08-26T07:39:03.092Z,23.81
2022-08-26T07:44:00.949Z,23.84
2022-08-26T07:46:30.426Z,23.89
2022-08-26T07:48:57.970Z,23.92
2022-08-26T07:51:25.471Z,23.95
2022-08-26T07:53:52.901Z,23.96
2022-08-26T07:56:21.691Z,23.96
2022-08-26T07:58:51.698Z,24.02
2022-08-26T08:01:24.319Z,24.05
2022-08-26T08:03:53.821Z,24.08
2022-08-26T08:06:23.065Z,24.11
2022-08-26T08:08:54.327Z,24.13
2022-08-26T08:11:21.413Z,24.16
2022-08-26T08:13:50.064Z,24.17
2022-08-26T08:16:24.593Z,24.21
2022-08-26T08:18:51.428Z,24.24
2022-08-26T08:21:22.225Z,24.27
2022-08-26T08:23:55.402Z,24.31
2022-08-26T08:26:22.999Z,24.33
2022-08-26T08:28:49.964Z,24.36
2022-08-26T08:31:55.884Z,24.38
2022-08-26T08:34:15.851Z,24.39
2022-08-26T08:36:46.195Z,24.43
2022-08-26T08:39:13.604Z,24.47
2022-08-26T08:41:59.630Z,24.48
2022-08-26T08:47:06.135Z,24.56
2022-08-26T08:49:34.341Z,24.61
2022-08-26T08:52:36.720Z,24.64
2022-08-26T08:55:06.127Z,24.70
2022-08-26T08:58:01.988Z,24.71
2022-08-26T09:00:46.460Z,24.77
2022-08-26T09:03:30.982Z,24.78
2022-08-26T09:06:00.220Z,24.81
2022-08-26T09:08:35.049Z,24.86
2022-08-26T09:11:03.578Z,24.90
2022-08-26T09:13:31.570Z,24.91
2022-08-26T09:16:04.197Z,24.97
2022-08-26T09:19:03.971Z,24.98
2022-08-26T09:21:31.596Z,25.05
2022-08-26T09:23:58.646Z,25.08
2022-08-26T09:26:30.873Z,25.10
2022-08-26T09:29:03.216Z,25.17
2022-08-26T09:31:32.649Z,25.20
2022-08-26T09:34:12.060Z,25.21
2022-08-26T09:36:53.652Z,25.24
2022-08-26T09:39:23.928Z,25.27
2022-08-26T09:42:02.761Z,25.29
2022-08-26T09:44:29.304Z,25.36
2022-08-26T09:46:59.973Z,25.38
2022-08-26T09:49:35.613Z,25.44
2022-08-26T09:52:04.762Z,25.50
2022-08-26T09:54:33.510Z,25.50
2022-08-26T09:57:16.134Z,25.53
2022-08-26T09:59:43.107Z,25.63
2022-08-26T10:02:28.860Z,25.63
2022-08-26T10:04:57.661Z,25.73
2022-08-26T10:07:40.317Z,25.77
2022-08-26T10:10:12.510Z,25.81
2022-08-26T10:12:58.595Z,25.86
2022-08-26T10:15:27.817Z,25.90
2022-08-26T10:18:02.973Z,25.98
2022-08-26T10:20:37.234Z,26.05
2022-08-26T10:23:18.539Z,26.06
2022-08-26T10:25:51.217Z,26.09
2022-08-26T10:28:21.568Z,26.14
2022-08-26T10:30:59.458Z,26.18
2022-08-26T10:33:26.038Z,26.18
2022-08-26T10:35:57.504Z,26.22
2022-08-26T10:38:34.208Z,26.30
2022-08-26T10:41:20.433Z,26.31
2022-08-26T10:43:59.842Z,26.35
2022-08-26T10:46:36.867Z,26.41
2022-08-26T10:49:08.624Z,26.44
2022-08-26T10:51:42.122Z,26.43
2022-08-26T10:54:16.340Z,26.51
2022-08-26T10:57:09.824Z,26.54
2022-08-26T10:59:50.714Z,26.59
2022-08-26T11:02:38.403Z,26.60
2022-08-26T11:05:15.352Z,26.65
2022-08-26T11:07:45.980Z,26.68
2022-08-26T11:10:18.414Z,26.67
2022-08-26T11:12:45.353Z,26.73
2022-08-26T11:15:24.725Z,26.75
2022-08-26T11:17:51.316Z,26.76
2022-08-26T11:20:29.930Z,26.81
2022-08-26T11:23:28.138Z,26.85
2022-08-26T11:26:10.067Z,26.86
2022-08-26T11:28:49.573Z,26.87
2022-08-26T11:31:19.201Z,26.92
2022-08-26T11:33:59.884Z,26.93
2022-08-26T11:36:41.686Z,27.01
2022-08-26T11:39:36.904Z,26.98
2022-08-26T11:42:37.325Z,26.99
2022-08-26T11:45:17.613Z,26.99
2022-08-26T11:47:44.666Z,27.02
2022-08-26T11:50:19.782Z,27.03
2022-08-26T11:53:01.583Z,27.08
2022-08-26T11:55:33.433Z,27.09
2022-08-26T11:58:04.810Z,27.11
2022-08-26T12:00:58.447Z,27.13
2022-08-26T12:03:38.937Z,27.12
2022-08-26T12:06:15.032Z,27.16
2022-08-26T12:08:44.351Z,27.20
2022-08-26T12:11:33.275Z,27.20
2022-08-26T12:14:03.835Z,27.24
2022-08-26T12:16:36.776Z,27.17
2022-08-26T12:19:25.229Z,27.24
2022-08-26T12:22:03.457Z,27.26
2022-08-26T12:24:30.328Z,27.31
2022-08-26T12:27:30.802Z,27.30
2022-08-26T12:30:12.403Z,27.33
2022-08-26T12:32:55.145Z,27.37
2022-08-26T12:35:24.874Z,27.25
2022-08-26T12:37:53.778Z,27.32
2022-08-26T12:40:46.546Z,27.38
2022-08-26T12:43:34.273Z,27.45
2022-08-26T12:46:00.937Z,27.48
2022-08-26T12:48:32.106Z,27.52
2022-08-26T12:50:59.817Z,27.54
2022-08-26T12:53:30.262Z,27.50
2022-08-26T12:56:04.555Z,27.58
2022-08-26T12:58:32.375Z,27.60
2022-08-26T13:01:22.222Z,27.61
2022-08-26T13:03:49.410Z,27.62
2022-08-26T13:06:29.425Z,27.67
2022-08-26T13:09:10.051Z,27.69
2022-08-26T13:11:39.430Z,27.71
2022-08-26T13:14:12.549Z,27.70
2022-08-26T13:16:48.233Z,27.72
2022-08-26T13:19:29.464Z,27.74
2022-08-26T13:21:58.354Z,27.77
2022-08-26T13:24:38.661Z,27.76
2022-08-26T13:27:08.080Z,27.77
2022-08-26T13:29:35.195Z,27.83
2022-08-26T13:32:03.105Z,27.84
2022-08-26T13:34:30.006Z,27.84
2022-08-26T13:36:58.298Z,27.85
2022-08-26T13:39:25.967Z,27.86
2022-08-26T13:41:53.183Z,27.85
2022-08-26T13:44:20.065Z,27.83
2022-08-26T13:46:46.549Z,27.85
2022-08-26T13:49:13.291Z,27.85
2022-08-26T13:51:40.691Z,27.83
2022-08-26T13:54:07.681Z,27.86
2022-08-26T13:56:35.438Z,27.86
2022-08-26T13:59:02.934Z,27.88
2022-08-26T14:01:31.279Z,27.87
2022-08-26T14:03:58.627Z,27.90
2022-08-26T14:06:25.324Z,27.90
2022-08-26T14:08:51.955Z,27.92
2022-08-26T14:11:18.594Z,27.92
2022-08-26T14:13:45.068Z,27.92
2022-08-26T14:16:19.495Z,27.97
2022-08-26T14:18:50.522Z,27.92
2022-08-26T14:21:17.363Z,28.00
2022-08-26T14:23:43.859Z,28.01
2022-08-26T14:26:11.956Z,28.02
2022-08-26T14:28:54.615Z,27.96
2022-08-26T14:31:23.368Z,28.03
2022-08-26T14:33:49.987Z,28.05
2022-08-26T14:36:28.219Z,28.06
2022-08-26T14:38:58.011Z,28.06
2022-08-26T14:41:25.288Z,28.05
2022-08-26T14:43:57.976Z,27.99
2022-08-26T14:46:28.659Z,28.02
2022-08-26T14:49:01.744Z,27.98
2022-08-26T14:51:29.577Z,28.00
2022-08-26T14:54:14.154Z,27.99
2022-08-26T14:56:46.364Z,28.00
2022-08-26T14:59:14.633Z,27.99
2022-08-26T15:01:41.189Z,27.96
2022-08-26T15:04:07.740Z,27.89
2022-08-26T15:06:35.260Z,27.87
2022-08-26T15:09:02.212Z,27.90
2022-08-26T15:11:29.157Z,27.80
2022-08-26T15:13:55.774Z,27.73
2022-08-26T15:16:22.736Z,27.81
2022-08-26T15:18:51.207Z,27.77
2022-08-26T15:21:19.353Z,27.74
2022-08-26T15:23:47.782Z,27.76
2022-08-26T15:26:15.548Z,27.78
2022-08-26T15:28:42.008Z,27.77
2022-08-26T15:31:08.767Z,27.71
2022-08-26T15:33:36.432Z,27.65
2022-08-26T15:36:04.294Z,27.61
2022-08-26T15:38:32.495Z,27.54
2022-08-26T15:41:02.917Z,27.57
2022-08-26T15:43:29.733Z,27.55
2022-08-26T15:45:57.716Z,27.53
2022-08-26T15:48:24.986Z,27.45
2022-08-26T15:51:00.461Z,27.32
2022-08-26T15:53:30.119Z,27.33
2022-08-26T15:55:58.172Z,27.39
2022-08-26T15:58:27.131Z,27.40
2022-08-26T16:00:54.949Z,27.37
2022-08-26T16:03:21.779Z,27.33
2022-08-26T16:05:48.427Z,27.31
2022-08-26T16:08:15.424Z,27.31
2022-08-26T16:10:49.797Z,27.34
2022-08-26T16:13:19.809Z,27.34
2022-08-26T16:15:48.089Z,27.26
2022-08-26T16:18:15.492Z,27.22
2022-08-26T16:21:12.879Z,27.24
2022-08-26T16:23:37.440Z,27.22
2022-08-26T16:26:12.076Z,27.16
2022-08-26T16:28:39.922Z,27.14
2022-08-26T16:31:07.121Z,27.09
2022-08-26T16:33:33.564Z,27.02
2022-08-26T16:36:00.006Z,26.97
2022-08-26T16:38:26.588Z,26.98
2022-08-26T16:40:53.021Z,27.00
2022-08-26T16:43:19.699Z,26.82
2022-08-26T16:45:46.166Z,26.75
2022-08-26T16:48:12.655Z,26.77
2022-08-26T16:50:40.685Z,26.80
2022-08-26T16:53:07.709Z,26.70
2022-08-26T16:55:34.784Z,26.67
2022-08-26T16:58:01.448Z,26.60
2022-08-26T17:00:31.137Z,26.64
2022-08-26T17:03:00.234Z,26.54
2022-08-26T17:05:28.036Z,26.46
2022-08-26T17:07:56.556Z,26.48
2022-08-26T17:10:24.561Z,26.43
2022-08-26T17:12:51.776Z,26.43
2022-08-26T17:15:19.022Z,26.42
2022-08-26T17:17:45.495Z,26.42
2022-08-26T17:20:15.613Z,26.42
2022-08-26T17:22:45.639Z,26.31
2022-08-26T17:25:15.560Z,26.33
2022-08-26T17:27:42.950Z,26.30
2022-08-26T17:30:10.090Z,26.31
2022-08-26T17:32:36.803Z,26.29
2022-08-26T17:35:04.736Z,26.29
2022-08-26T17:37:31.294Z,26.28
2022-08-26T17:39:58.381Z,26.27
2022-08-26T17:42:31.373Z,26.26
2022-08-26T17:44:58.389Z,26.22
2022-08-26T17:47:25.003Z,26.21
2022-08-26T17:49:51.661Z,26.20
2022-08-26T17:52:18.165Z,26.18
2022-08-26T17:54:44.846Z,26.17
2022-08-26T17:57:11.361Z,26.16
2022-08-26T17:59:38.585Z,26.13
2022-08-26T18:02:07.485Z,26.12
2022-08-26T18:04:34.237Z,26.07
2022-08-26T18:07:01.248Z,26.08
2022-08-26T18:09:31.146Z,26.07
2022-08-26T18:11:58.444Z,26.05
2022-08-26T18:14:25.212Z,26.05
2022-08-26T18:16:52.105Z,25.94
2022-08-26T18:19:18.790Z,26.00
2022-08-26T18:21:45.309Z,25.95
2022-08-26T18:24:13.995Z,25.96
2022-08-26T18:26:44.473Z,25.94
2022-08-26T18:29:11.168Z,25.93
2022-08-26T18:31:37.604Z,25.90
2022-08-26T18:34:04.184Z,25.91
2022-08-26T18:36:34.118Z,25.88
2022-08-26T18:39:00.984Z,25.88
2022-08-26T18:41:30.359Z,25.84
2022-08-26T18:43:57.868Z,25.84
2022-08-26T18:46:26.484Z,25.82
2022-08-26T18:48:56.141Z,25.80
2022-08-26T18:51:26.020Z,25.78
2022-08-26T18:53:53.325Z,25.76
2022-08-26T18:56:19.872Z,25.77
2022-08-26T18:58:46.512Z,25.74
2022-08-26T19:01:13.711Z,25.72
2022-08-26T19:03:40.576Z,25.71
2022-08-26T19:06:07.311Z,25.68
2022-08-26T19:08:33.763Z,25.65
2022-08-26T19:11:00.690Z,25.62
2022-08-26T19:13:27.138Z,25.61
2022-08-26T19:15:53.636Z,25.60
2022-08-26T19:18:20.075Z,25.58
2022-08-26T19:20:47.816Z,25.54
2022-08-26T19:23:31.037Z,25.54
2022-08-26T19:25:58.538Z,25.47
2022-08-26T19:28:24.946Z,25.49
2022-08-26T19:30:53.378Z,25.47
2022-08-26T19:33:20.115Z,25.42
2022-08-26T19:35:46.639Z,25.42
2022-08-26T19:38:13.625Z,25.41
2022-08-26T19:40:40.367Z,25.37
2022-08-26T19:43:07.120Z,25.36
2022-08-26T19:45:34.582Z,25.35
2022-08-26T19:48:01.146Z,25.35
2022-08-26T19:50:31.062Z,25.32
2022-08-26T19:52:58.498Z,25.30
2022-08-26T19:55:26.129Z,25.27
2022-08-26T19:57:53.706Z,25.25
2022-08-26T20:00:23.760Z,25.25
2022-08-26T20:02:51.750Z,25.24
2022-08-26T20:05:20.907Z,25.20
2022-08-26T20:07:47.897Z,25.19
2022-08-26T20:10:16.556Z,25.19
2022-08-26T20:12:43.588Z,25.15
2022-08-26T20:15:12.002Z,25.10
2022-08-26T20:17:39.374Z,25.13
2022-08-26T20:20:33.193Z,25.10
2022-08-26T20:23:01.297Z,25.06
2022-08-26T20:25:28.305Z,25.04
2022-08-26T20:27:54.737Z,25.04
2022-08-26T20:30:21.365Z,25.04
2022-08-26T20:32:48.376Z,25.04
2022-08-26T20:35:14.928Z,25.00
2022-08-26T20:37:42.364Z,25.00
2022-08-26T20:40:12.464Z,24.98
2022-08-26T20:42:39.031Z,24.97
2022-08-26T20:45:07.231Z,24.96
2022-08-26T20:47:34.390Z,24.97
2022-08-26T20:50:02.331Z,24.88
2022-08-26T20:52:28.855Z,24.84
2022-08-26T20:54:55.510Z,24.86
2022-08-26T20:57:22.243Z,24.86
2022-08-26T20:59:49.029Z,24.85
2022-08-26T21:02:15.970Z,24.86
2022-08-26T21:04:42.515Z,24.85
2022-08-26T21:07:09.001Z,24.79
2022-08-26T21:09:35.503Z,24.83
2022-08-26T21:12:02.322Z,24.82
2022-08-26T21:14:28.839Z,24.80
2022-08-26T21:16:56.460Z,24.78
2022-08-26T21:19:23.128Z,24.79
2022-08-26T21:21:50.242Z,24.77
2022-08-26T21:24:17.363Z,24.72
2022-08-26T21:26:43.964Z,24.72
2022-08-26T21:29:10.593Z,24.73
2022-08-26T21:31:40.975Z,24.71
2022-08-26T21:34:11.560Z,24.70
2022-08-26T21:36:37.988Z,24.72
2022-08-26T21:39:09.284Z,24.66
2022-08-26T21:41:38.084Z,24.66
2022-08-26T21:44:04.542Z,24.57
2022-08-26T21:46:31.022Z,24.62
2022-08-26T21:49:00.145Z,24.61
2022-08-26T21:51:29.489Z,24.60
2022-08-26T21:53:57.906Z,24.50
2022-08-26T21:56:27.443Z,24.50
2022-08-26T21:58:55.669Z,24.51
2022-08-26T22:01:25.195Z,24.46
2022-08-26T22:03:52.592Z,24.44
2022-08-26T22:06:21.716Z,24.46
2022-08-26T22:08:48.977Z,24.48
2022-08-26T22:11:15.705Z,24.48
2022-08-26T22:13:43.365Z,24.43
2022-08-26T22:16:11.378Z,24.46
2022-08-26T22:18:38.889Z,24.46
2022-08-26T22:21:08.802Z,24.45
2022-08-26T22:23:37.366Z,24.44
2022-08-26T22:26:06.749Z,24.42
2022-08-26T22:28:34.412Z,24.42
2022-08-26T22:31:01.855Z,24.36
2022-08-26T22:33:28.934Z,24.38
2022-08-26T22:35:55.899Z,24.37
2022-08-26T22:38:23.746Z,24.38
2022-08-26T22:40:55.940Z,24.33
2022-08-26T22:43:28.677Z,24.31
2022-08-26T22:45:57.157Z,24.32
2022-08-26T22:48:26.391Z,24.31
2022-08-26T22:50:59.608Z,24.29
2022-08-26T22:53:26.925Z,24.25
2022-08-26T22:55:54.292Z,24.25
2022-08-26T22:58:21.419Z,24.24
2022-08-26T23:00:57.625Z,24.25
2022-08-26T23:03:26.411Z,24.22
2022-08-26T23:05:53.000Z,24.22
2022-08-26T23:08:20.090Z,24.19
2022-08-26T23:10:47.705Z,24.16
2022-08-26T23:13:15.281Z,24.15
2022-08-26T23:15:42.689Z,24.08
2022-08-26T23:18:10.186Z,24.09
2022-08-26T23:20:37.717Z,24.04
2022-08-26T23:23:04.866Z,24.02
2022-08-26T23:25:32.418Z,24.02
2022-08-26T23:28:00.757Z,24.00
2022-08-26T23:30:29.619Z,24.01
2022-08-26T23:32:56.118Z,24.00
2022-08-26T23:35:22.608Z,23.98
2022-08-26T23:37:52.402Z,23.99
2022-08-26T23:40:29.529Z,23.94
2022-08-26T23:42:57.780Z,23.99
2022-08-26T23:45:25.837Z,23.99
2022-08-26T23:47:53.386Z,23.98
2022-08-26T23:50:48.219Z,23.98
2022-08-26T23:53:20.766Z,23.96
2022-08-26T23:55:51.968Z,23.89
2022-08-26T23:58:20.434Z,23.90
